Time,TemperatureF,DewpointF,PressureIn,WindDirection,WindDirectionDegrees,WindSpeedMPH,WindSpeedGustMPH,Humidity,HourlyPrecipIn,Conditions,Clouds,dailyrainin,SolarRadiationWatts/m^2,SoftwareType,DateUTC
2013-07-20 00:01:00,69.1,67.9,29.69,South,176,1.2,2.5,96,0.09,RA,BKN,0.00,0.0,WeatherDisplay:10.37,2013-07-20 04:01:00,
2013-07-20 00:06:00,69.3,68.1,29.67,SE,139,1.5,4.6,96,0.05,RA,BKN,0.00,0.0,WeatherDisplay:10.37,2013-07-20 04:06:00,
2013-07-20 00:11:00,69.3,68.1,29.69,South,171,2.1,5.8,96,0.03,OVC,BKN,0.00,0.0,WeatherDisplay:10.37,2013-07-20 04:11:00,
2013-07-20 00:16:00,69.3,68.1,29.67,South,187,2.4,6.9,96,0.03,RA,BKN,0.01,0.0,WeatherDisplay:10.37,2013-07-20 04:16:00,
2013-07-20 00:21:00,69.1,67.9,29.67,SSW,199,3.4,6.9,96,0.03,RA,BKN,0.01,0.0,WeatherDisplay:10.37,2013-07-20 04:21:00,
2013-07-20 00:26:00,69.4,68.2,29.67,SSE,150,0.6,1.6,96,0.03,OVC,BKN,0.01,0.0,WeatherDisplay:10.37,2013-07-20 04:26:00,
2013-07-20 00:31:00,69.6,68.4,29.67,SE,130,0.3,2.3,96,0.02,OVC,BKN,0.01,0.0,WeatherDisplay:10.37,2013-07-20 04:31:00,
2013-07-20 00:36:00,69.8,68.6,29.67,SE,140,0.2,2.3,96,0.02,OVC,BKN,0.01,0.0,WeatherDisplay:10.37,2013-07-20 04:36:00,
2013-07-20 00:41:00,69.8,68.3,29.67,South,184,0.2,2.3,95,0.02,OVC,BKN,0.01,0.0,WeatherDisplay:10.37,2013-07-20 04:41:00,
2013-07-20 00:46:00,69.8,68.3,29.68,South,190,0.7,2.3,95,0.02,OVC,BKN,0.01,0.0,WeatherDisplay:10.37,2013-07-20 04:46:00,
2013-07-20 00:51:00,70.0,68.5,29.67,SSE,168,0.0,0.0,95,0.01,OVC,BKN,0.01,0.0,WeatherDisplay:10.37,2013-07-20 04:51:00,
2013-07-20 00:56:00,70.0,68.5,29.67,SSE,163,0.0,0.8,95,0.01,OVC,BKN,0.01,0.0,WeatherDisplay:10.37,2013-07-20 04:56:00,
2013-07-20 01:01:00,70.2,68.7,29.67,SE,140,0.7,1.1,95,0.01,OVC,BKN,0.01,0.0,WeatherDisplay:10.37,2013-07-20 05:01:00,
2013-07-20 01:06:00,70.3,69.1,29.67,SE,143,0.0,0.0,96,0.01,OVC,BKN,0.01,0.0,WeatherDisplay:10.37,2013-07-20 05:06:00,
2013-07-20 01:11:00,70.3,68.8,29.67,South,182,0.0,0.0,95,0.01,OVC,BKN,0.01,0.0,WeatherDisplay:10.37,2013-07-20 05:11:00,
2013-07-20 01:16:00,70.3,68.8,29.67,South,182,0.0,0.0,95,0.01,OVC,BKN,0.01,0.0,WeatherDisplay:10.37,2013-07-20 05:16:00,
2013-07-20 01:21:00,70.2,68.7,29.67,South,172,0.2,1.1,95,0.02,RA,BKN,0.03,0.0,WeatherDisplay:10.37,2013-07-20 05:21:00,
2013-07-20 01:26:00,70.3,68.8,29.67,South,181,0.1,1.3,95,0.03,RA,BKN,0.04,0.0,WeatherDisplay:10.37,2013-07-20 05:26:00,
2013-07-20 01:31:00,70.5,69.3,29.67,South,174,0.0,0.0,96,0.04,RA,BKN,0.06,0.0,WeatherDisplay:10.37,2013-07-20 05:31:00,
2013-07-20 01:36:00,70.5,69.3,29.68,West,270,1.0,6.9,96,0.05,RA,BKN,0.06,0.0,WeatherDisplay:10.37,2013-07-20 05:36:00,
2013-07-20 01:41:00,70.5,69.0,29.67,West,267,0.0,0.0,95,0.05,RA,BKN,0.06,0.0,WeatherDisplay:10.37,2013-07-20 05:41:00,
2013-07-20 01:46:00,70.7,69.2,29.68,WNW,295,0.9,3.5,95,0.06,RA,BKN,0.07,0.0,WeatherDisplay:10.37,2013-07-20 05:46:00,
2013-07-20 01:51:00,70.9,69.4,29.68,WNW,295,0.2,1.1,95,0.06,RA,BKN,0.07,0.0,WeatherDisplay:10.37,2013-07-20 05:51:00,
2013-07-20 01:56:00,70.9,69.4,29.68,West,271,1.0,3.5,95,0.06,OVC,BKN,0.07,0.0,WeatherDisplay:10.37,2013-07-20 05:56:00,
2013-07-20 02:01:00,71.1,69.6,29.67,WNW,297,0.0,0.0,95,0.07,RA,BKN,0.08,0.0,WeatherDisplay:10.37,2013-07-20 06:01:00,
2013-07-20 02:06:00,71.1,69.6,29.67,NW,314,0.3,2.3,95,0.07,RA,BKN,0.08,0.0,WeatherDisplay:10.37,2013-07-20 06:06:00,
2013-07-20 02:11:00,71.2,69.7,29.67,NW,324,0.1,1.1,95,0.08,RA,BKN,0.09,0.0,WeatherDisplay:10.37,2013-07-20 06:11:00,
2013-07-20 02:16:00,71.1,69.6,29.67,WNW,301,0.1,1.1,95,0.09,RA,BKN,0.10,0.0,WeatherDisplay:10.37,2013-07-20 06:16:00,
2013-07-20 02:21:00,71.2,69.7,29.67,NW,317,0.0,0.0,95,0.07,RA,BKN,0.10,0.0,WeatherDisplay:10.37,2013-07-20 06:21:00,
2013-07-20 02:26:00,71.2,69.7,29.67,WNW,287,0.0,0.0,95,0.06,OVC,BKN,0.10,0.0,WeatherDisplay:10.37,2013-07-20 06:26:00,
2013-07-20 02:31:00,71.2,69.7,29.66,WNW,288,0.0,0.0,95,0.06,RA,BKN,0.11,0.0,WeatherDisplay:10.37,2013-07-20 06:31:00,
2013-07-20 02:36:00,71.4,69.9,29.65,SE,135,0.0,0.0,95,0.05,-RA,BKN,0.11,0.0,WeatherDisplay:10.37,2013-07-20 06:36:00,
2013-07-20 02:41:00,71.4,69.9,29.65,SE,135,0.0,0.0,95,0.05,-RA,BKN,0.11,0.0,WeatherDisplay:10.37,2013-07-20 06:41:00,
2013-07-20 02:46:00,71.4,69.9,29.65,SE,135,0.0,0.0,95,0.04,-RA,BKN,0.11,0.0,WeatherDisplay:10.37,2013-07-20 06:46:00,
2013-07-20 02:51:00,71.4,69.9,29.65,ESE,121,0.0,0.0,95,0.05,-RA,BKN,0.12,0.0,WeatherDisplay:10.37,2013-07-20 06:51:00,
2013-07-20 02:56:00,71.4,69.9,29.66,ESE,120,0.0,0.0,95,0.05,-RA,BKN,0.12,0.0,WeatherDisplay:10.37,2013-07-20 06:56:00,
2013-07-20 03:01:00,71.4,69.9,29.67,NW,306,0.2,1.1,95,0.04,-RA,BKN,0.12,0.0,WeatherDisplay:10.37,2013-07-20 07:01:00,
2013-07-20 03:06:00,71.4,69.9,29.67,NNW,335,0.3,1.1,95,0.05,-RA,BKN,0.13,0.0,WeatherDisplay:10.37,2013-07-20 07:06:00,
2013-07-20 03:11:00,71.4,69.9,29.67,NNW,348,0.0,0.0,95,0.04,-RA,BKN,0.13,0.0,WeatherDisplay:10.37,2013-07-20 07:11:00,
2013-07-20 03:16:00,71.4,69.9,29.67,North,353,0.0,0.0,95,0.03,-RA,BKN,0.13,0.0,WeatherDisplay:10.37,2013-07-20 07:16:00,
2013-07-20 03:21:00,71.4,69.9,29.68,NE,35,0.1,1.3,95,0.03,-RA,BKN,0.13,0.0,WeatherDisplay:10.37,2013-07-20 07:21:00,
2013-07-20 03:26:00,71.4,69.9,29.67,SE,127,0.0,0.0,95,0.04,-RA,BKN,0.14,0.0,WeatherDisplay:10.37,2013-07-20 07:26:00,
2013-07-20 03:31:00,71.4,69.9,29.67,ESE,119,0.0,0.0,95,0.03,RA,BKN,0.14,0.0,WeatherDisplay:10.37,2013-07-20 07:31:00,
2013-07-20 03:36:00,71.4,69.9,29.67,ESE,120,0.0,0.0,95,0.03,OVC,BKN,0.14,0.0,WeatherDisplay:10.37,2013-07-20 07:36:00,
2013-07-20 03:41:00,71.4,69.9,29.67,SE,126,0.0,0.0,95,0.03,OVC,BKN,0.14,0.0,WeatherDisplay:10.37,2013-07-20 07:41:00,
2013-07-20 03:46:00,71.4,69.9,29.67,SE,140,0.2,1.1,95,0.03,OVC,BKN,0.14,0.0,WeatherDisplay:10.37,2013-07-20 07:46:00,
2013-07-20 03:51:00,71.4,69.9,29.67,SE,140,0.0,0.0,95,0.02,OVC,BKN,0.14,0.0,WeatherDisplay:10.37,2013-07-20 07:51:00,
2013-07-20 03:56:00,71.4,69.9,29.67,SE,140,0.0,0.0,95,0.02,OVC,BKN,0.14,0.0,WeatherDisplay:10.37,2013-07-20 07:56:00,
2013-07-20 04:01:00,71.4,69.9,29.67,SE,140,0.0,0.0,95,0.02,OVC,BKN,0.14,0.0,WeatherDisplay:10.37,2013-07-20 08:01:00,
2013-07-20 04:06:00,71.2,69.7,29.68,South,169,0.0,1.1,95,0.01,OVC,BKN,0.14,0.0,WeatherDisplay:10.37,2013-07-20 08:06:00,
2013-07-20 04:11:00,71.2,69.7,29.69,South,182,0.1,2.3,95,0.01,OVC,BKN,0.14,0.0,WeatherDisplay:10.37,2013-07-20 08:11:00,
2013-07-20 04:16:00,71.2,69.7,29.69,SSW,198,0.4,1.1,95,0.01,OVC,BKN,0.14,0.0,WeatherDisplay:10.37,2013-07-20 08:16:00,
2013-07-20 04:21:00,71.2,70.0,29.68,SSW,192,1.1,2.3,96,0.01,OVC,BKN,0.14,0.0,WeatherDisplay:10.37,2013-07-20 08:21:00,
2013-07-20 04:26:00,71.2,70.0,29.67,South,179,0.8,2.3,96,0.00,OVC,BKN,0.14,0.0,WeatherDisplay:10.37,2013-07-20 08:26:00,
2013-07-20 04:31:00,71.2,70.0,29.67,South,171,0.8,1.1,96,0.00,OVC,BKN,0.14,0.0,WeatherDisplay:10.37,2013-07-20 08:31:00,
2013-07-20 04:36:00,70.9,69.7,29.67,SSW,195,2.9,6.9,96,0.00,OVC,BKN,0.14,0.0,WeatherDisplay:10.37,2013-07-20 08:36:00,
2013-07-20 04:41:00,70.7,69.5,29.67,South,184,3.5,6.9,96,0.01,RA,BKN,0.15,0.0,WeatherDisplay:10.37,2013-07-20 08:41:00,
2013-07-20 04:46:00,70.9,69.7,29.67,South,186,3.7,6.9,96,0.01,RA,BKN,0.15,0.0,WeatherDisplay:10.37,2013-07-20 08:46:00,
2013-07-20 04:51:00,70.9,70.0,29.66,SW,236,5.4,10.4,97,0.01,OVC,BKN,0.15,0.0,WeatherDisplay:10.37,2013-07-20 08:51:00,
2013-07-20 04:56:00,71.1,70.2,29.66,SSW,199,3.4,6.9,97,0.01,OVC,BKN,0.15,0.0,WeatherDisplay:10.37,2013-07-20 08:56:00,
2013-07-20 05:01:00,70.9,69.7,29.65,North,356,4.7,9.2,96,0.01,-RA,BKN,0.15,0.0,WeatherDisplay:10.37,2013-07-20 09:01:00,
2013-07-20 05:06:00,70.9,69.7,29.66,SSE,158,4.6,9.2,96,0.01,-RA,BKN,0.15,0.0,WeatherDisplay:10.37,2013-07-20 09:06:00,
2013-07-20 05:11:00,70.7,69.5,29.65,SSW,207,4.6,10.4,96,0.01,-RA,BKN,0.15,0.0,WeatherDisplay:10.37,2013-07-20 09:11:00,
2013-07-20 05:16:00,70.5,69.3,29.65,South,169,3.0,8.1,96,0.02,-RA,BKN,0.16,0.0,WeatherDisplay:10.37,2013-07-20 09:16:00,
2013-07-20 05:21:00,70.5,69.3,29.65,SSW,199,4.3,8.1,96,0.02,-RA,BKN,0.16,0.0,WeatherDisplay:10.37,2013-07-20 09:21:00,
2013-07-20 05:26:00,70.3,68.8,29.63,SW,217,4.7,11.8,95,0.02,-RA,BKN,0.16,0.0,WeatherDisplay:10.37,2013-07-20 09:26:00,
2013-07-20 05:31:00,70.0,68.2,29.62,South,171,6.5,13.8,94,0.02,-RA,BKN,0.16,0.0,WeatherDisplay:10.37,2013-07-20 09:31:00,
2013-07-20 05:36:00,70.3,68.5,29.63,WNW,288,2.4,6.9,94,0.02,-RA,BKN,0.16,0.0,WeatherDisplay:10.37,2013-07-20 09:36:00,
2013-07-20 05:41:00,70.3,68.5,29.65,WNW,291,7.8,11.5,94,0.01,-RA,BKN,0.16,0.0,WeatherDisplay:10.37,2013-07-20 09:41:00,
2013-07-20 05:46:00,70.5,68.7,29.65,NW,304,6.2,9.2,94,0.01,-RA,BKN,0.16,0.0,WeatherDisplay:10.37,2013-07-20 09:46:00,
2013-07-20 05:51:00,70.3,68.5,29.65,NW,306,5.5,10.4,94,0.01,-RA,BKN,0.16,0.0,WeatherDisplay:10.37,2013-07-20 09:51:00,
2013-07-20 05:56:00,70.3,68.5,29.65,West,280,3.4,6.9,94,0.01,-RA,BKN,0.16,0.0,WeatherDisplay:10.37,2013-07-20 09:56:00,
2013-07-20 06:01:00,70.3,68.2,29.63,NW,308,2.2,4.6,93,0.01,-RA,BKN,0.16,0.0,WeatherDisplay:10.37,2013-07-20 10:01:00,
2013-07-20 06:06:00,70.5,68.4,29.63,West,275,0.6,2.2,93,0.01,-RA,BKN,0.16,0.0,WeatherDisplay:10.37,2013-07-20 10:06:00,
2013-07-20 06:11:00,70.3,68.2,29.63,SSW,205,1.3,3.5,93,0.01,-RA,BKN,0.16,0.0,WeatherDisplay:10.37,2013-07-20 10:11:00,
2013-07-20 06:16:00,70.2,68.0,29.62,SSW,212,0.9,2.3,93,0.00,OVC,BKN,0.16,0.0,WeatherDisplay:10.37,2013-07-20 10:16:00,
2013-07-20 06:21:00,70.2,68.0,29.62,WSW,245,1.4,5.8,93,0.00,OVC,BKN,0.16,0.0,WeatherDisplay:10.37,2013-07-20 10:21:00,
2013-07-20 06:26:00,70.3,67.9,29.62,North,351,1.7,4.6,92,0.00,OVC,BKN,0.16,0.0,WeatherDisplay:10.37,2013-07-20 10:26:00,
2013-07-20 06:31:00,70.3,67.9,29.62,SW,219,0.1,1.1,92,0.00,OVC,BKN,0.16,0.0,WeatherDisplay:10.37,2013-07-20 10:31:00,
2013-07-20 06:36:00,70.3,67.9,29.62,South,191,0.0,2.3,92,0.00,OVC,BKN,0.16,0.0,WeatherDisplay:10.37,2013-07-20 10:36:00,
2013-07-20 06:41:00,70.0,67.5,29.62,SSW,213,0.0,1.1,92,0.00,OVC,BKN,0.16,0.0,WeatherDisplay:10.37,2013-07-20 10:41:00,
2013-07-20 06:46:00,70.2,67.7,29.62,South,175,0.7,2.3,92,0.00,OVC,BKN,0.16,0.0,WeatherDisplay:10.37,2013-07-20 10:46:00,
2013-07-20 06:51:00,69.8,67.4,29.62,SSE,156,0.9,4.6,92,0.00,OVC,BKN,0.16,0.2,WeatherDisplay:10.37,2013-07-20 10:51:00,
2013-07-20 06:56:00,70.2,67.7,29.63,West,260,0.6,2.3,92,0.00,OVC,BKN,0.16,0.7,WeatherDisplay:10.37,2013-07-20 10:56:00,
2013-07-20 07:01:00,70.0,67.5,29.63,SSW,205,0.2,2.3,92,0.00,OVC,BKN,0.16,1.1,WeatherDisplay:10.37,2013-07-20 11:01:00,
2013-07-20 07:06:00,70.0,67.2,29.63,NW,306,1.2,3.5,91,0.00,OVC,BKN,0.16,2.0,WeatherDisplay:10.37,2013-07-20 11:06:00,
2013-07-20 07:11:00,70.2,67.4,29.64,WSW,254,1.9,5.8,91,0.00,OVC,BKN,0.16,3.4,WeatherDisplay:10.37,2013-07-20 11:11:00,
2013-07-20 07:16:00,69.8,66.7,29.64,WNW,296,1.5,6.9,90,0.00,OVC,BKN,0.16,4.5,WeatherDisplay:10.37,2013-07-20 11:16:00,
2013-07-20 07:21:00,70.0,66.9,29.64,SSW,212,0.8,2.3,90,0.00,OVC,BKN,0.16,6.6,WeatherDisplay:10.37,2013-07-20 11:21:00,
2013-07-20 07:26:00,69.6,66.6,29.65,SSW,195,2.2,6.9,90,0.00,OVC,BKN,0.16,9.9,WeatherDisplay:10.37,2013-07-20 11:26:00,
2013-07-20 07:31:00,69.6,66.6,29.65,South,171,2.3,4.6,90,0.00,OVC,BKN,0.16,13.8,WeatherDisplay:10.37,2013-07-20 11:31:00,
2013-07-20 07:36:00,69.6,66.6,29.65,SSW,192,2.5,4.6,90,0.00,OVC,BKN,0.16,17.1,WeatherDisplay:10.37,2013-07-20 11:36:00,
2013-07-20 07:41:00,69.6,66.6,29.65,South,178,3.4,10.4,90,0.00,OVC,BKN,0.16,18.5,WeatherDisplay:10.37,2013-07-20 11:41:00,
2013-07-20 07:46:00,70.0,67.2,29.65,WSW,248,1.6,3.5,91,0.00,OVC,BKN,0.16,20.3,WeatherDisplay:10.37,2013-07-20 11:46:00,
2013-07-20 07:51:00,70.0,67.2,29.65,WSW,238,2.2,4.7,91,0.00,OVC,BKN,0.16,22.6,WeatherDisplay:10.37,2013-07-20 11:51:00,
2013-07-20 07:56:00,70.0,67.2,29.65,SE,145,2.6,4.6,91,0.00,OVC,BKN,0.16,25.2,WeatherDisplay:10.37,2013-07-20 11:56:00,
2013-07-20 08:01:00,70.3,67.3,29.65,WNW,283,3.4,8.1,90,0.00,OVC,BKN,0.16,24.2,WeatherDisplay:10.37,2013-07-20 12:01:00,
2013-07-20 08:06:00,70.9,67.8,29.66,SW,236,1.9,4.6,90,0.00,OVC,BKN,0.16,25.3,WeatherDisplay:10.37,2013-07-20 12:06:00,
2013-07-20 08:11:00,70.5,67.4,29.66,WSW,240,2.0,4.6,90,0.00,OVC,BKN,0.16,27.6,WeatherDisplay:10.37,2013-07-20 12:11:00,
2013-07-20 08:16:00,70.3,67.3,29.66,SSW,212,3.2,5.8,90,0.00,OVC,BKN,0.16,34.6,WeatherDisplay:10.37,2013-07-20 12:16:00,
2013-07-20 08:21:00,70.5,67.8,29.66,SW,236,3.1,6.9,91,0.00,OVC,BKN,0.16,38.5,WeatherDisplay:10.37,2013-07-20 12:21:00,
2013-07-20 08:26:00,70.5,67.4,29.66,SSW,194,2.0,8.1,90,0.00,OVC,BKN,0.16,41.4,WeatherDisplay:10.37,2013-07-20 12:26:00,
2013-07-20 08:31:00,70.9,67.8,29.66,SW,219,1.7,5.8,90,0.00,OVC,BKN,0.16,43.5,WeatherDisplay:10.37,2013-07-20 12:31:00,
2013-07-20 08:36:00,71.2,68.2,29.66,West,267,1.6,3.5,90,0.00,OVC,BKN,0.16,47.8,WeatherDisplay:10.37,2013-07-20 12:36:00,
2013-07-20 08:41:00,71.1,68.0,29.66,West,265,2.1,4.6,90,0.00,OVC,BKN,0.16,56.4,WeatherDisplay:10.37,2013-07-20 12:41:00,
2013-07-20 08:46:00,71.1,68.0,29.66,SSE,152,2.9,6.9,90,0.00,OVC,BKN,0.16,68.8,WeatherDisplay:10.37,2013-07-20 12:46:00,
2013-07-20 08:51:00,70.9,67.8,29.66,SSW,207,6.7,6.9,90,0.00,RA,BKN,0.16,93.2,WeatherDisplay:10.37,2013-07-20 12:51:00,
2013-07-20 08:56:00,71.4,68.3,29.67,West,268,4.5,11.5,90,0.00,RA,BKN,0.16,109.4,WeatherDisplay:10.37,2013-07-20 12:56:00,
2013-07-20 09:01:00,71.8,68.4,29.66,SW,222,2.2,6.9,89,0.00,OVC,BKN,0.16,124.2,WeatherDisplay:10.37,2013-07-20 13:01:00,
2013-07-20 09:06:00,71.8,68.4,29.67,WSW,253,3.2,9.2,89,0.00,OVC,BKN,0.16,138.4,WeatherDisplay:10.37,2013-07-20 13:06:00,
2013-07-20 09:11:00,72.1,68.4,29.67,NW,309,4.3,10.4,88,0.00,OVC,BKN,0.16,131.8,WeatherDisplay:10.37,2013-07-20 13:11:00,
2013-07-20 09:16:00,72.3,68.6,29.67,SSW,194,1.8,5.8,88,0.00,OVC,BKN,0.16,205.0,WeatherDisplay:10.37,2013-07-20 13:16:00,
2013-07-20 09:21:00,72.1,68.4,29.67,SSW,193,3.1,5.8,88,0.00,OVC,BKN,0.16,184.6,WeatherDisplay:10.37,2013-07-20 13:21:00,
2013-07-20 09:26:00,72.3,68.9,29.67,WSW,239,2.6,4.6,89,0.00,OVC,BKN,0.16,175.2,WeatherDisplay:10.37,2013-07-20 13:26:00,
2013-07-20 09:31:00,72.3,68.6,29.67,SSW,197,3.2,5.8,88,0.00,OVC,BKN,0.16,180.6,WeatherDisplay:10.37,2013-07-20 13:31:00,
2013-07-20 09:36:00,73.0,69.3,29.68,SSW,206,1.9,3.5,88,0.00,OVC,BKN,0.16,141.5,WeatherDisplay:10.37,2013-07-20 13:36:00,
2013-07-20 09:41:00,72.7,68.9,29.67,West,275,2.7,4.6,88,0.00,OVC,BKN,0.16,118.5,WeatherDisplay:10.37,2013-07-20 13:41:00,
2013-07-20 09:46:00,72.7,68.9,29.67,SW,230,2.9,9.2,88,0.00,OVC,BKN,0.16,91.8,WeatherDisplay:10.37,2013-07-20 13:46:00,
2013-07-20 09:51:00,72.5,68.7,29.67,WSW,245,2.0,4.6,88,0.00,OVC,BKN,0.16,46.0,WeatherDisplay:10.37,2013-07-20 13:51:00,
2013-07-20 09:56:00,72.3,68.9,29.67,SSW,203,2.5,4.6,89,0.00,OVC,BKN,0.16,53.2,WeatherDisplay:10.37,2013-07-20 13:56:00,
2013-07-20 10:01:00,72.3,68.9,29.67,SW,219,1.8,4.6,89,0.00,-RA,BKN,0.16,45.3,WeatherDisplay:10.37,2013-07-20 14:01:00,
2013-07-20 10:06:00,72.3,69.2,29.67,West,275,1.0,2.3,90,0.00,-RA,BKN,0.16,66.8,WeatherDisplay:10.37,2013-07-20 14:06:00,
2013-07-20 10:11:00,72.3,69.2,29.67,WSW,248,3.2,11.5,90,0.00,-RA,BKN,0.16,57.1,WeatherDisplay:10.37,2013-07-20 14:11:00,
2013-07-20 10:16:00,72.1,69.7,29.68,SSE,148,2.0,3.5,92,0.00,-RA,BKN,0.16,100.3,WeatherDisplay:10.37,2013-07-20 14:16:00,
2013-07-20 10:21:00,72.3,69.9,29.68,SSW,205,1.0,2.3,92,0.00,-RA,BKN,0.16,104.1,WeatherDisplay:10.37,2013-07-20 14:21:00,
2013-07-20 10:26:00,72.3,70.2,29.68,SW,234,1.7,6.9,93,0.00,-RA,BKN,0.16,200.5,WeatherDisplay:10.37,2013-07-20 14:26:00,
2013-07-20 10:31:00,72.3,70.5,29.68,NW,305,1.3,4.6,94,0.01,-RA,BKN,0.17,143.2,WeatherDisplay:10.37,2013-07-20 14:31:00,
2013-07-20 10:36:00,72.0,70.1,29.68,WNW,298,4.6,11.5,94,0.03,-RA,BKN,0.19,128.3,WeatherDisplay:10.37,2013-07-20 14:36:00,
2013-07-20 10:41:00,72.1,70.6,29.67,West,270,0.7,6.9,95,0.04,-RA,BKN,0.20,139.7,WeatherDisplay:10.37,2013-07-20 14:41:00,
2013-07-20 10:46:00,72.3,70.8,29.68,West,259,1.4,6.9,95,0.04,-RA,BKN,0.21,87.7,WeatherDisplay:10.37,2013-07-20 14:46:00,
2013-07-20 10:51:00,72.1,70.6,29.68,West,280,1.4,4.6,95,0.06,-RA,BKN,0.22,71.4,WeatherDisplay:10.37,2013-07-20 14:51:00,
2013-07-20 10:56:00,72.1,70.6,29.68,South,191,1.5,6.9,95,0.08,-RA,BKN,0.24,67.8,WeatherDisplay:10.37,2013-07-20 14:56:00,
2013-07-20 11:01:00,72.1,70.6,29.68,NNW,332,1.4,6.9,95,0.08,-RA,BKN,0.25,73.8,WeatherDisplay:10.37,2013-07-20 15:01:00,
2013-07-20 11:06:00,72.0,70.4,29.69,West,272,1.9,4.6,95,0.11,-RA,BKN,0.27,74.9,WeatherDisplay:10.37,2013-07-20 15:06:00,
2013-07-20 11:11:00,72.3,71.1,29.69,WNW,292,1.0,5.8,96,0.12,-RA,BKN,0.28,61.1,WeatherDisplay:10.37,2013-07-20 15:11:00,
2013-07-20 11:16:00,72.1,70.9,29.69,West,275,2.2,3.5,96,0.12,RA,BKN,0.28,69.1,WeatherDisplay:10.37,2013-07-20 15:16:00,
2013-07-20 11:21:00,72.1,70.9,29.69,SSW,213,2.5,6.9,96,0.13,RA,BKN,0.29,55.6,WeatherDisplay:10.37,2013-07-20 15:21:00,
2013-07-20 11:26:00,72.1,70.9,29.69,SW,233,1.3,4.6,96,0.13,RA,BKN,0.30,65.8,WeatherDisplay:10.37,2013-07-20 15:26:00,
2013-07-20 11:31:00,72.0,70.8,29.69,SW,232,1.5,6.9,96,0.13,-RA,BKN,0.30,66.6,WeatherDisplay:10.37,2013-07-20 15:31:00,
2013-07-20 11:36:00,72.1,70.9,29.69,WNW,290,2.5,10.4,96,0.12,-RA,BKN,0.31,70.7,WeatherDisplay:10.37,2013-07-20 15:36:00,
2013-07-20 11:41:00,72.1,70.9,29.69,West,262,0.7,2.3,96,0.12,-RA,BKN,0.32,97.6,WeatherDisplay:10.37,2013-07-20 15:41:00,
2013-07-20 11:46:00,72.3,71.1,29.69,NNW,329,1.1,6.9,96,0.13,-RA,BKN,0.33,104.2,WeatherDisplay:10.37,2013-07-20 15:46:00,
2013-07-20 11:51:00,71.8,70.6,29.69,North,4,1.9,5.8,96,0.14,-RA,BKN,0.36,81.0,WeatherDisplay:10.37,2013-07-20 15:51:00,
2013-07-20 11:56:00,72.1,70.9,29.69,NNW,339,7.1,10.7,96,0.22,-RA,BKN,0.47,66.2,WeatherDisplay:10.37,2013-07-20 15:56:00,
2013-07-20 12:01:00,70.5,68.7,29.70,NW,324,6.3,9.2,94,0.26,-RA,BKN,0.50,124.6,WeatherDisplay:10.37,2013-07-20 16:01:00,
2013-07-20 12:06:00,69.4,67.6,29.70,WNW,292,7.7,11.5,94,0.25,-RA,BKN,0.52,195.6,WeatherDisplay:10.37,2013-07-20 16:06:00,
2013-07-20 12:11:00,68.5,66.4,29.72,NW,324,4.1,9.2,93,0.24,-RA,BKN,0.52,154.8,WeatherDisplay:10.37,2013-07-20 16:11:00,
2013-07-20 12:16:00,68.2,66.1,29.71,NW,326,4.3,8.9,93,0.25,RA,BKN,0.53,199.3,WeatherDisplay:10.37,2013-07-20 16:16:00,
2013-07-20 12:21:00,68.2,66.1,29.71,WNW,283,4.0,9.2,93,0.26,RA,BKN,0.55,195.1,WeatherDisplay:10.37,2013-07-20 16:21:00,
2013-07-20 12:26:00,67.8,65.4,29.72,NW,314,2.5,4.6,92,0.27,RA,BKN,0.56,168.4,WeatherDisplay:10.37,2013-07-20 16:26:00,
2013-07-20 12:31:00,67.8,65.4,29.72,NW,312,3.1,5.8,92,0.26,-RA,BKN,0.56,96.8,WeatherDisplay:10.37,2013-07-20 16:31:00,
2013-07-20 12:36:00,67.6,64.9,29.72,NNW,327,3.2,5.8,91,0.25,-RA,BKN,0.57,81.8,WeatherDisplay:10.37,2013-07-20 16:36:00,
2013-07-20 12:41:00,67.6,65.2,29.72,NW,308,3.1,5.8,92,0.27,-RA,BKN,0.59,141.8,WeatherDisplay:10.37,2013-07-20 16:41:00,
2013-07-20 12:46:00,67.6,65.2,29.72,North,352,0.1,2.3,92,0.26,-RA,BKN,0.59,214.8,WeatherDisplay:10.37,2013-07-20 16:46:00,
2013-07-20 12:51:00,67.6,65.2,29.72,South,180,0.6,3.7,92,0.23,-RA,BKN,0.59,326.6,WeatherDisplay:10.37,2013-07-20 16:51:00,
2013-07-20 12:56:00,68.2,66.1,29.72,South,174,0.0,0.0,93,0.13,-RA,BKN,0.59,563.1,WeatherDisplay:10.37,2013-07-20 16:56:00,
2013-07-20 13:01:00,68.7,66.6,29.72,South,179,0.3,2.3,93,0.09,-RA,BKN,0.59,542.8,WeatherDisplay:10.37,2013-07-20 17:01:00,
2013-07-20 13:06:00,68.9,66.5,29.72,South,178,0.6,1.3,92,0.07,-RA,BKN,0.59,325.8,WeatherDisplay:10.37,2013-07-20 17:06:00,
2013-07-20 13:11:00,69.1,66.7,29.71,South,178,1.3,3.5,92,0.07,-RA,BKN,0.59,484.2,WeatherDisplay:10.37,2013-07-20 17:11:00,
2013-07-20 13:16:00,69.1,66.3,29.71,SSE,160,1.9,4.6,91,0.06,BKN,,0.59,717.2,WeatherDisplay:10.37,2013-07-20 17:16:00,
2013-07-20 13:21:00,70.0,67.9,29.70,South,179,0.6,2.3,93,0.04,BKN,,0.59,682.1,WeatherDisplay:10.37,2013-07-20 17:21:00,
2013-07-20 13:26:00,70.5,68.1,29.70,South,181,2.1,5.8,92,0.03,BKN,,0.59,570.1,WeatherDisplay:10.37,2013-07-20 17:26:00,
2013-07-20 13:31:00,70.7,68.3,29.71,South,185,1.4,2.3,92,0.03,BKN,,0.59,522.7,WeatherDisplay:10.37,2013-07-20 17:31:00,
2013-07-20 13:36:00,70.5,67.1,29.70,SSW,205,2.6,4.6,89,0.03,BKN,,0.59,1147.5,WeatherDisplay:10.37,2013-07-20 17:36:00,
2013-07-20 13:41:00,71.2,68.2,29.70,SSE,158,0.9,3.5,90,0.00,BKN,,0.59,629.4,WeatherDisplay:10.37,2013-07-20 17:41:00,
2013-07-20 13:46:00,71.6,67.9,29.70,SSE,164,1.2,3.5,88,0.00,BKN,,0.59,511.4,WeatherDisplay:10.37,2013-07-20 17:46:00,
2013-07-20 13:51:00,72.1,68.4,29.70,South,176,0.9,2.3,88,0.00,BKN,,0.59,1244.6,WeatherDisplay:10.37,2013-07-20 17:51:00,
2013-07-20 13:56:00,72.3,68.2,29.71,South,172,2.7,5.8,87,0.00,BKN,,0.59,1265.6,WeatherDisplay:10.37,2013-07-20 17:56:00,
2013-07-20 14:01:00,72.7,68.9,29.72,South,176,1.7,4.3,88,0.00,BKN,,0.59,560.4,WeatherDisplay:10.37,2013-07-20 18:01:00,
2013-07-20 14:06:00,73.0,69.3,29.71,South,184,1.1,5.8,88,0.00,BKN,,0.59,1258.6,WeatherDisplay:10.37,2013-07-20 18:06:00,
2013-07-20 14:11:00,74.1,70.3,29.71,South,182,0.4,0.8,88,0.00,BKN,,0.59,887.1,WeatherDisplay:10.37,2013-07-20 18:11:00,
2013-07-20 14:16:00,74.5,69.3,29.71,South,191,1.3,3.5,84,0.00,BKN,,0.59,940.9,WeatherDisplay:10.37,2013-07-20 18:16:00,
2013-07-20 14:21:00,75.4,70.2,29.71,South,187,0.8,1.3,84,0.00,BKN,,0.59,736.4,WeatherDisplay:10.37,2013-07-20 18:21:00,
2013-07-20 14:27:00,75.0,68.8,29.71,SSW,192,2.5,4.6,81,0.00,BKN,,0.59,896.2,WeatherDisplay:10.37,2013-07-20 18:27:00,
2013-07-20 14:32:00,74.5,67.9,29.71,South,171,3.4,6.9,80,0.00,BKN,,0.59,735.3,WeatherDisplay:10.37,2013-07-20 18:32:00,
2013-07-20 14:37:00,75.0,68.4,29.71,South,170,2.3,4.6,80,0.00,BKN,,0.59,905.1,WeatherDisplay:10.37,2013-07-20 18:37:00,
2013-07-20 14:43:00,75.4,68.8,29.72,SSW,202,1.3,3.5,80,0.00,BKN,,0.59,1107.4,WeatherDisplay:10.37,2013-07-20 18:43:00,
2013-07-20 14:48:00,76.1,68.0,29.71,SSE,164,2.3,5.8,76,0.00,BKN,,0.59,1099.2,WeatherDisplay:10.37,2013-07-20 18:48:00,
2013-07-20 14:53:00,77.0,69.6,29.71,South,178,1.5,3.5,78,0.00,BKN,,0.59,1128.6,WeatherDisplay:10.37,2013-07-20 18:53:00,
2013-07-20 14:59:00,77.2,68.2,29.71,SSE,168,1.8,2.9,74,0.00,BKN,,0.59,1018.8,WeatherDisplay:10.37,2013-07-20 18:59:00,
2013-07-20 15:05:00,77.4,68.8,29.71,WSW,245,0.5,5.8,75,0.00,BKN,,0.59,1040.6,WeatherDisplay:10.37,2013-07-20 19:05:00,
2013-07-20 15:10:00,78.3,68.9,29.72,WNW,303,1.7,3.8,73,0.00,BKN,,0.59,1127.6,WeatherDisplay:10.37,2013-07-20 19:10:00,
2013-07-20 15:15:00,78.4,68.3,29.72,SSW,200,1.6,4.6,71,0.00,BKN,,0.59,1115.9,WeatherDisplay:10.37,2013-07-20 19:15:00,
2013-07-20 15:20:00,78.3,68.1,29.72,SSE,147,3.5,8.1,71,0.00,BKN,,0.59,1065.9,WeatherDisplay:10.37,2013-07-20 19:20:00,
2013-07-20 15:25:00,78.1,68.3,29.72,SSE,168,1.6,3.9,72,0.00,BKN,,0.59,1042.8,WeatherDisplay:10.37,2013-07-20 19:25:00,
2013-07-20 15:30:00,78.8,69.4,29.72,SW,232,1.4,4.6,73,0.00,BKN,,0.59,1016.4,WeatherDisplay:10.37,2013-07-20 19:30:00,
2013-07-20 15:35:00,79.5,69.3,29.72,SW,226,0.7,2.3,71,0.00,BKN,,0.59,1045.0,WeatherDisplay:10.37,2013-07-20 19:35:00,
2013-07-20 15:40:00,80.4,67.6,29.72,WNW,293,1.7,9.2,65,0.00,BKN,,0.59,1023.8,WeatherDisplay:10.37,2013-07-20 19:40:00,
2013-07-20 15:45:00,80.4,69.3,29.72,SSW,199,1.3,3.5,69,0.00,BKN,,0.59,448.0,WeatherDisplay:10.37,2013-07-20 19:45:00,
2013-07-20 15:50:00,79.5,68.0,29.72,SSW,210,1.3,4.6,68,0.00,BKN,,0.59,333.8,WeatherDisplay:10.37,2013-07-20 19:50:00,
2013-07-20 15:56:00,79.5,68.0,29.72,WNW,300,1.9,4.6,68,0.00,BKN,,0.59,474.4,WeatherDisplay:10.37,2013-07-20 19:56:00,
2013-07-20 16:01:00,80.6,68.6,29.72,WNW,293,1.7,2.6,67,0.00,BKN,,0.59,694.2,WeatherDisplay:10.37,2013-07-20 20:01:00,
2013-07-20 16:06:00,80.8,66.5,29.72,WNW,295,4.8,6.9,62,0.00,BKN,,0.59,557.3,WeatherDisplay:10.37,2013-07-20 20:06:00,
2013-07-20 16:12:00,81.1,67.3,29.72,SSW,206,3.0,8.1,63,0.00,BKN,,0.59,498.4,WeatherDisplay:10.37,2013-07-20 20:12:00,
2013-07-20 16:17:00,81.1,68.3,29.72,West,281,1.5,3.7,65,0.00,BKN,,0.59,748.8,WeatherDisplay:10.37,2013-07-20 20:17:00,
2013-07-20 16:22:00,81.1,67.3,29.72,South,175,1.7,6.9,63,0.00,BKN,,0.59,444.0,WeatherDisplay:10.37,2013-07-20 20:22:00,
2013-07-20 16:27:00,80.8,67.0,29.72,SW,236,2.5,9.2,63,0.00,BKN,,0.59,733.4,WeatherDisplay:10.37,2013-07-20 20:27:00,
2013-07-20 16:32:00,81.0,68.5,29.72,NW,313,0.3,3.0,66,0.00,BKN,,0.59,616.5,WeatherDisplay:10.37,2013-07-20 20:32:00,
2013-07-20 16:38:00,81.3,68.9,29.72,SSW,199,1.3,3.5,66,0.00,BKN,,0.59,638.7,WeatherDisplay:10.37,2013-07-20 20:38:00,
2013-07-20 16:44:00,82.2,68.4,29.72,West,279,2.9,8.9,63,0.00,BKN,,0.59,209.8,WeatherDisplay:10.37,2013-07-20 20:44:00,
2013-07-20 16:49:00,80.4,67.1,29.71,SE,143,0.8,2.3,64,0.00,BKN,,0.59,315.7,WeatherDisplay:10.37,2013-07-20 20:49:00,
2013-07-20 16:54:00,80.4,67.1,29.72,NW,314,2.5,8.4,64,0.00,BKN,,0.59,388.6,WeatherDisplay:10.37,2013-07-20 20:54:00,
2013-07-20 16:59:00,81.1,61.8,29.72,NW,325,4.0,6.9,52,0.00,BKN,,0.59,732.8,WeatherDisplay:10.37,2013-07-20 20:59:00,
2013-07-20 17:05:00,82.2,62.3,29.72,WNW,287,1.5,4.6,51,0.00,BKN,,0.59,749.3,WeatherDisplay:10.37,2013-07-20 21:05:00,
2013-07-20 17:10:00,82.4,60.7,29.72,NW,315,6.3,11.5,48,0.00,BKN,,0.59,504.8,WeatherDisplay:10.37,2013-07-20 21:10:00,
2013-07-20 17:15:00,82.2,60.0,29.72,WNW,287,2.3,8.1,47,0.00,BKN,,0.59,397.7,WeatherDisplay:10.37,2013-07-20 21:15:00,
2013-07-20 17:20:00,82.4,60.7,29.72,NNW,330,3.3,6.9,48,0.00,BKN,,0.59,612.5,WeatherDisplay:10.37,2013-07-20 21:20:00,
2013-07-20 17:26:00,83.1,62.6,29.72,West,275,3.1,5.4,50,0.00,BKN,,0.59,218.4,WeatherDisplay:10.37,2013-07-20 21:26:00,
2013-07-20 17:31:00,82.6,60.9,29.72,NNW,333,2.4,4.6,48,0.00,BKN,,0.59,140.5,WeatherDisplay:10.37,2013-07-20 21:31:00,
2013-07-20 17:36:00,81.9,62.5,29.72,NW,318,0.7,2.3,52,0.00,BKN,,0.59,163.6,WeatherDisplay:10.37,2013-07-20 21:36:00,
2013-07-20 17:42:00,81.7,62.9,29.72,WNW,290,1.1,3.5,53,0.00,BKN,,0.59,369.9,WeatherDisplay:10.37,2013-07-20 21:42:00,
2013-07-20 17:47:00,81.9,63.1,29.72,NNW,334,2.3,3.5,53,0.00,BKN,,0.59,213.1,WeatherDisplay:10.37,2013-07-20 21:47:00,
2013-07-20 17:52:00,82.0,63.2,29.72,WNW,286,1.6,3.5,53,0.00,BKN,,0.59,281.7,WeatherDisplay:10.37,2013-07-20 21:52:00,
2013-07-20 17:57:00,82.0,62.1,29.72,NNW,332,1.5,2.3,51,0.00,BKN,,0.59,256.7,WeatherDisplay:10.37,2013-07-20 21:57:00,
2013-07-20 18:02:00,82.6,64.3,29.72,NNW,329,0.9,2.3,54,0.00,BKN,,0.59,250.0,WeatherDisplay:10.37,2013-07-20 22:02:00,
2013-07-20 18:08:00,82.9,63.5,29.72,NNW,334,0.8,2.8,52,0.00,BKN,,0.59,188.6,WeatherDisplay:10.37,2013-07-20 22:08:00,
2013-07-20 18:13:00,83.5,62.3,29.72,NW,310,1.8,3.5,49,0.00,BKN,,0.59,131.4,WeatherDisplay:10.37,2013-07-20 22:13:00,
2013-07-20 18:18:00,83.1,62.0,29.72,WNW,302,1.2,4.6,49,0.00,BKN,,0.59,151.2,WeatherDisplay:10.37,2013-07-20 22:18:00,
2013-07-20 18:23:00,82.9,63.5,29.71,WNW,295,0.1,1.1,52,0.00,BKN,,0.59,185.5,WeatherDisplay:10.37,2013-07-20 22:23:00,
2013-07-20 18:29:00,82.9,62.4,29.72,NW,306,2.5,4.6,50,0.00,BKN,,0.59,134.3,WeatherDisplay:10.37,2013-07-20 22:29:00,
2013-07-20 18:34:00,82.9,64.0,29.72,NW,305,0.2,1.0,53,0.00,BKN,,0.59,114.1,WeatherDisplay:10.37,2013-07-20 22:34:00,
2013-07-20 18:39:00,82.9,63.0,29.72,NNW,328,1.7,3.5,51,0.00,BKN,,0.59,104.5,WeatherDisplay:10.37,2013-07-20 22:39:00,
2013-07-20 18:44:00,82.9,63.0,29.72,NW,321,0.5,0.8,51,0.00,BKN,,0.59,108.2,WeatherDisplay:10.37,2013-07-20 22:44:00,
2013-07-20 18:50:00,82.9,61.8,29.72,WNW,290,1.1,2.3,49,0.00,BKN,,0.59,87.7,WeatherDisplay:10.37,2013-07-20 22:50:00,
2013-07-20 18:55:00,82.9,63.5,29.72,WNW,302,2.0,2.3,52,0.00,BKN,,0.59,80.9,WeatherDisplay:10.37,2013-07-20 22:55:00,
2013-07-20 19:00:00,82.9,63.5,29.72,WNW,295,0.5,0.0,52,0.00,BKN,,0.59,82.1,WeatherDisplay:10.37,2013-07-20 23:00:00,
2013-07-20 19:05:00,82.4,64.1,29.72,SSW,192,0.0,1.1,54,0.00,BKN,,0.59,110.3,WeatherDisplay:10.37,2013-07-20 23:05:00,
2013-07-20 19:10:00,81.7,63.9,29.72,South,188,0.0,0.0,55,0.00,BKN,,0.59,98.9,WeatherDisplay:10.37,2013-07-20 23:10:00,
2013-07-20 19:15:00,81.3,65.1,29.72,NNW,347,0.0,0.7,58,0.00,BKN,,0.59,97.0,WeatherDisplay:10.37,2013-07-20 23:15:00,
2013-07-20 19:20:00,80.8,64.6,29.72,SSW,198,0.0,0.0,58,0.00,BKN,,0.59,76.5,WeatherDisplay:10.37,2013-07-20 23:20:00,
2013-07-20 19:26:00,80.4,65.3,29.72,SSW,197,0.0,0.0,60,0.00,BKN,,0.59,60.7,WeatherDisplay:10.37,2013-07-20 23:26:00,
2013-07-20 19:31:00,80.2,65.1,29.73,South,179,0.0,0.0,60,0.00,BKN,,0.59,56.2,WeatherDisplay:10.37,2013-07-20 23:31:00,
2013-07-20 19:36:00,79.7,64.6,29.73,South,181,0.0,1.1,60,0.00,BKN,,0.59,39.3,WeatherDisplay:10.37,2013-07-20 23:36:00,
2013-07-20 19:41:00,79.5,65.8,29.72,South,189,0.2,1.1,63,0.00,BKN,,0.59,65.8,WeatherDisplay:10.37,2013-07-20 23:41:00,
2013-07-20 19:46:00,79.3,65.6,29.72,South,183,0.9,2.3,63,0.00,BKN,,0.59,64.3,WeatherDisplay:10.37,2013-07-20 23:46:00,
2013-07-20 19:51:00,79.2,66.4,29.72,South,187,0.0,1.1,65,0.00,BKN,,0.59,118.1,WeatherDisplay:10.37,2013-07-20 23:51:00,
2013-07-20 19:56:00,79.3,67.0,29.73,South,186,0.0,0.0,66,0.00,BKN,,0.59,104.8,WeatherDisplay:10.37,2013-07-20 23:56:00,
2013-07-20 20:01:00,79.3,67.4,29.73,South,186,0.0,0.0,67,0.00,BKN,,0.59,92.7,WeatherDisplay:10.37,2013-07-21 00:01:00,
2013-07-20 20:06:00,79.3,67.4,29.73,South,186,0.0,0.0,67,0.00,BKN,,0.59,74.2,WeatherDisplay:10.37,2013-07-21 00:06:00,
2013-07-20 20:11:00,79.2,68.1,29.73,South,186,0.0,0.0,69,0.00,BKN,,0.59,55.1,WeatherDisplay:10.37,2013-07-21 00:11:00,
2013-07-20 20:16:00,79.0,67.9,29.73,South,186,0.0,0.0,69,0.00,BKN,,0.59,15.4,WeatherDisplay:10.37,2013-07-21 00:16:00,
2013-07-20 20:21:00,78.4,68.3,29.74,South,186,0.0,0.0,71,0.00,BKN,,0.59,21.0,WeatherDisplay:10.37,2013-07-21 00:21:00,
2013-07-20 20:26:00,78.1,68.3,29.74,South,186,0.0,0.0,72,0.00,BKN,,0.59,22.1,WeatherDisplay:10.37,2013-07-21 00:26:00,
2013-07-20 20:32:00,77.5,68.2,29.74,South,186,0.0,0.0,73,0.00,BKN,,0.59,9.0,WeatherDisplay:10.37,2013-07-21 00:32:00,
2013-07-20 20:38:00,77.0,68.1,29.74,South,186,0.0,0.0,74,0.00,BKN,,0.59,4.9,WeatherDisplay:10.37,2013-07-21 00:38:00,
2013-07-20 20:43:00,76.6,68.5,29.74,South,184,0.0,0.0,76,0.00,BKN,,0.59,3.2,WeatherDisplay:10.37,2013-07-21 00:43:00,
2013-07-20 20:48:00,76.3,68.9,29.74,South,184,0.0,0.0,78,0.00,BKN,,0.59,1.7,WeatherDisplay:10.37,2013-07-21 00:48:00,
2013-07-20 20:53:00,75.9,68.6,29.74,South,187,0.0,0.0,78,0.00,BKN,,0.59,1.1,WeatherDisplay:10.37,2013-07-21 00:53:00,
2013-07-20 20:58:00,75.6,69.0,29.75,South,190,0.0,0.0,80,0.00,BKN,,0.59,0.4,WeatherDisplay:10.37,2013-07-21 00:58:00,
2013-07-20 21:03:00,75.2,69.0,29.74,South,191,0.0,0.0,81,0.00,BKN,,0.59,0.0,WeatherDisplay:10.37,2013-07-21 01:03:00,
2013-07-20 21:08:00,75.0,69.1,29.74,South,191,0.0,0.0,82,0.00,BKN,,0.59,0.0,WeatherDisplay:10.37,2013-07-21 01:08:00,
2013-07-20 21:13:00,74.7,69.2,29.76,South,191,0.0,0.0,83,0.00,BKN,,0.59,0.0,WeatherDisplay:10.37,2013-07-21 01:13:00,
2013-07-20 21:19:00,74.3,69.1,29.75,South,189,0.1,1.1,84,0.00,BKN,,0.59,0.0,WeatherDisplay:10.37,2013-07-21 01:19:00,
2013-07-20 21:25:00,74.1,69.3,29.76,South,186,0.0,0.0,85,0.00,BKN,,0.59,0.0,WeatherDisplay:10.37,2013-07-21 01:25:00,
2013-07-20 21:30:00,73.9,69.1,29.76,South,186,0.0,0.0,85,0.00,BKN,,0.59,0.0,WeatherDisplay:10.37,2013-07-21 01:30:00,
2013-07-20 21:36:00,73.8,69.3,29.76,South,187,0.0,0.0,86,0.00,BKN,,0.59,0.0,WeatherDisplay:10.37,2013-07-21 01:36:00,
2013-07-20 21:41:00,73.6,69.1,29.77,South,187,0.0,0.0,86,0.00,BKN,,0.59,0.0,WeatherDisplay:10.37,2013-07-21 01:41:00,
2013-07-20 21:46:00,73.6,69.5,29.76,South,187,0.0,0.0,87,0.00,BKN,,0.59,0.0,WeatherDisplay:10.37,2013-07-21 01:46:00,
2013-07-20 21:51:00,73.6,69.5,29.77,South,187,0.0,0.0,87,0.00,BKN,,0.59,0.0,WeatherDisplay:10.37,2013-07-21 01:51:00,
2013-07-20 21:56:00,73.4,69.6,29.77,South,187,0.0,0.0,88,0.00,BKN,,0.59,0.0,WeatherDisplay:10.37,2013-07-21 01:56:00,
2013-07-20 22:01:00,73.6,69.8,29.77,South,187,0.0,0.0,88,0.00,BKN,,0.59,0.0,WeatherDisplay:10.37,2013-07-21 02:01:00,
2013-07-20 22:07:00,73.6,69.8,29.77,WNW,303,0.0,0.0,88,0.00,BKN,,0.59,0.0,WeatherDisplay:10.37,2013-07-21 02:07:00,
2013-07-20 22:12:00,73.4,69.6,29.78,NW,321,0.0,0.0,88,0.00,BKN,,0.59,0.0,WeatherDisplay:10.37,2013-07-21 02:12:00,
2013-07-20 22:17:00,73.4,70.0,29.78,West,273,0.0,0.0,89,0.00,BKN,,0.59,0.0,WeatherDisplay:10.37,2013-07-21 02:17:00,
2013-07-20 22:23:00,73.2,69.8,29.78,WNW,285,0.0,0.0,89,0.00,BKN,,0.59,0.0,WeatherDisplay:10.37,2013-07-21 02:23:00,
2013-07-20 22:28:00,73.4,70.0,29.78,NW,308,0.1,1.1,89,0.00,BKN,,0.59,0.0,WeatherDisplay:10.37,2013-07-21 02:28:00,
2013-07-20 22:33:00,73.2,69.5,29.78,WNW,287,0.6,3.5,88,0.00,BKN,,0.59,0.0,WeatherDisplay:10.37,2013-07-21 02:33:00,
2013-07-20 22:38:00,73.2,69.5,29.79,WNW,298,0.4,1.1,88,0.00,BKN,,0.59,0.0,WeatherDisplay:10.37,2013-07-21 02:38:00,
2013-07-20 22:43:00,73.0,68.6,29.79,NW,309,1.7,4.6,86,0.00,BKN,,0.59,0.0,WeatherDisplay:10.37,2013-07-21 02:43:00,
2013-07-20 22:48:00,73.0,68.3,29.78,WNW,287,1.6,3.7,85,0.00,BKN,,0.59,0.0,WeatherDisplay:10.37,2013-07-21 02:48:00,
2013-07-20 22:54:00,72.7,67.2,29.78,NW,314,1.6,3.5,83,0.00,BKN,,0.59,0.0,WeatherDisplay:10.37,2013-07-21 02:54:00,
2013-07-20 22:59:00,72.7,67.2,29.79,NW,321,0.7,1.1,83,0.00,BKN,,0.59,0.0,WeatherDisplay:10.37,2013-07-21 02:59:00,
2013-07-20 23:04:00,72.5,67.0,29.79,NW,316,0.9,2.3,83,0.00,BKN,,0.59,0.0,WeatherDisplay:10.37,2013-07-21 03:04:00,
2013-07-20 23:09:00,72.3,66.5,29.80,NW,314,0.5,1.1,82,0.00,BKN,,0.59,0.0,WeatherDisplay:10.37,2013-07-21 03:09:00,
2013-07-20 23:14:00,72.3,66.5,29.80,NW,323,0.0,0.0,82,0.00,BKN,,0.59,0.0,WeatherDisplay:10.37,2013-07-21 03:14:00,
2013-07-20 23:19:00,72.1,66.3,29.80,NW,312,0.0,0.0,82,0.00,BKN,,0.59,0.0,WeatherDisplay:10.37,2013-07-21 03:19:00,
2013-07-20 23:25:00,72.1,66.3,29.80,NW,318,0.0,0.0,82,0.00,BKN,,0.59,0.0,WeatherDisplay:10.37,2013-07-21 03:25:00,
2013-07-20 23:30:00,72.0,66.2,29.80,NW,311,0.0,0.0,82,0.00,BKN,,0.59,0.0,WeatherDisplay:10.37,2013-07-21 03:30:00,
2013-07-20 23:35:00,71.8,66.0,29.81,WNW,295,0.0,0.0,82,0.00,BKN,,0.59,0.0,WeatherDisplay:10.37,2013-07-21 03:35:00,
2013-07-20 23:40:00,71.8,66.0,29.81,NW,313,0.0,0.0,82,0.00,BKN,,0.59,0.0,WeatherDisplay:10.37,2013-07-21 03:40:00,
2013-07-20 23:45:00,71.4,65.3,29.81,NW,313,0.0,0.0,81,0.00,BKN,,0.59,0.0,WeatherDisplay:10.37,2013-07-21 03:45:00,
2013-07-20 23:50:00,71.4,65.3,29.81,NW,310,0.0,0.0,81,0.00,BKN,,0.59,0.0,WeatherDisplay:10.37,2013-07-21 03:50:00,
2013-07-20 23:55:00,71.4,65.3,29.81,NW,311,0.0,0.0,81,0.00,BKN,,0.59,0.0,WeatherDisplay:10.37,2013-07-21 03:55:00,